Karin S — V2BM6 — position and weather

sailwx.info

Track history (hours):
 
Tides and Currents Weather Stations Pressure Air Temp Water Temp Dewpoint Dewpoint Depression Visibility Wind Speed Wind Dir Waves Ship Positions

Karin S

Last reported at 2015-Mar-24 15:09 UTC. Time now 2015-Apr-01 10:45 UTC.
Position N 38°14' E 002°38'.

Length 148 m; draft 8.7 m.

Type: Ship. MMSI: 304871000.

Date/timePositionNaut miles runAvg speedWind from/ knotsBaromVisibWave heightAir tempDewpointWater temp
2015-Mar-24 15:09N 38°14' E 002°38'712.3
2015-Mar-24 14:33N 38°22' E 002°36'1312.5
2015-Mar-24 13:33N 38°34' E 002°31'1212.3
2015-Mar-24 12:33N 38°45' E 002°27'1212.3
2015-Mar-24 11:33N 38°57' E 002°23'1212.3
2015-Mar-24 10:33N 39°09' E 002°19'1212.3
2015-Mar-24 09:33N 39°21' E 002°15'1212.2
2015-Mar-24 08:32N 39°33' E 002°11'1212.1
2015-Mar-24 07:33N 39°45' E 002°10'1212.2
2015-Mar-24 06:33N 39°57' E 002°10'1211.8
2015-Mar-24 05:33N 40°09' E 002°10'1211.6
2015-Mar-24 04:33N 40°20' E 002°10'1211.9
2015-Mar-24 03:33N 40°32' E 002°11'1212.1
2015-Mar-24 02:33N 40°44' E 002°10'1212.1
2015-Mar-24 01:33N 40°57' E 002°11'1211.9
2015-Mar-24 00:31N 41°09' E 002°11'9 7.7
2015-Mar-23 23:17N 41°18' E 002°09'0 0.1
2015-Mar-23 22:10N 41°18' E 002°09'0 0.0
2015-Mar-23 21:26N 41°18' E 002°09'0 0.0
2015-Mar-23 16:31N 41°18' E 002°09'0 0.0
2015-Mar-23 10:29N 41°18' E 002°09'0 0.0
2015-Mar-23 07:31N 41°18' E 002°09'2 1.3
2015-Mar-23 06:19N 41°18' E 002°11'10111.4
2015-Mar-22 21:28N 42°09' E 004°07'1111.8
2015-Mar-22 20:31N 42°18' E 004°15'1411.9
2015-Mar-22 19:22N 42°30' E 004°25'1011.9
2015-Mar-22 18:33N 42°38' E 004°32'1312.2
2015-Mar-22 17:29N 42°49' E 004°41'1212.6
2015-Mar-22 16:33N 42°59' E 004°50'1212.0
2015-Mar-22 15:33N 43°09' E 004°59'1111.4
2015-Mar-22 14:33N 43°20' E 004°58'7 7.4
2015-Mar-22 13:33N 43°25' E 004°50'0 0.0
2015-Mar-22 12:30N 43°25' E 004°50'0 0.0
2015-Mar-22 11:33N 43°25' E 004°50'0 0.0
2015-Mar-22 10:33N 43°25' E 004°50'0 0.0
2015-Mar-22 09:33N 43°25' E 004°50'0 0.0
2015-Mar-22 08:33N 43°25' E 004°50'0 0.0
2015-Mar-22 07:25N 43°25' E 004°50'0 0.0
2015-Mar-22 06:25N 43°25' E 004°50'0 0.0
2015-Mar-22 05:25N 43°25' E 004°50'0 0.0
2015-Mar-22 04:31N 43°25' E 004°50'0 0.0
2015-Mar-22 03:33N 43°25' E 004°50'0 0.0
2015-Mar-22 02:33N 43°25' E 004°50'2 1.9
2015-Mar-22 01:33N 43°24' E 004°52'9 9.0
2015-Mar-22 00:33N 43°17' E 005°00'7811.2
2015-Mar-21 17:33N 42°56' E 006°44'1312.7
2015-Mar-21 16:33N 43°01' E 006°60'1313.1
2015-Mar-21 15:32N 43°06' E 007°16'2712.7
2015-Mar-21 13:24N 43°17' E 007°50'2312.5
2015-Mar-21 11:32N 43°27' E 008°19'1212.4
2015-Mar-21 10:33N 43°33' E 008°34'1212.1
2015-Mar-21 09:33N 43°38' E 008°49'1212.1
2015-Mar-21 08:33N 43°44' E 009°04'1212.4
2015-Mar-21 07:33N 43°49' E 009°19'1212.2
2015-Mar-21 06:33N 43°54' E 009°34'1212.0
2015-Mar-21 05:33N 43°60' E 009°49'7 6.7
2015-Mar-21 04:33N 44°06' E 009°51'0 0.0
2015-Mar-21 03:33N 44°06' E 009°51'0 0.0
2015-Mar-21 02:33N 44°06' E 009°51'0 0.0
2015-Mar-21 01:33N 44°06' E 009°51'0 0.0
2015-Mar-21 00:33N 44°06' E 009°51'0 0.0
2015-Mar-20 23:33N 44°06' E 009°51'0 0.0
2015-Mar-20 22:33N 44°06' E 009°51'0 0.0
2015-Mar-20 21:33N 44°06' E 009°51'0 0.0
2015-Mar-20 20:33N 44°06' E 009°51'0 0.0
2015-Mar-20 19:33N 44°06' E 009°51'0 0.0
2015-Mar-20 18:33N 44°06' E 009°51'0 0.0
2015-Mar-20 17:27N 44°06' E 009°51'0 0.0
2015-Mar-20 16:33N 44°06' E 009°51'0 0.0
2015-Mar-20 15:33N 44°06' E 009°51'0 0.0
2015-Mar-20 14:33N 44°06' E 009°51'0 0.0
2015-Mar-20 13:33N 44°06' E 009°51'0 0.0
2015-Mar-20 12:33N 44°06' E 009°51'0 0.0
2015-Mar-20 11:33N 44°06' E 009°51'0 0.0
2015-Mar-20 10:33N 44°06' E 009°51'0 0.0
2015-Mar-20 09:33N 44°06' E 009°51'0 0.0
2015-Mar-20 08:33N 44°06' E 009°51'0 0.0
2015-Mar-20 07:33N 44°06' E 009°51'0 0.0
2015-Mar-20 06:30N 44°06' E 009°51'3 3.5
2015-Mar-20 05:34N 44°03' E 009°52'3 2.7
2015-Mar-20 04:33N 44°02' E 009°56'0 0.0
2015-Mar-20 03:31N 44°02' E 009°56'0 0.0
2015-Mar-20 02:31N 44°02' E 009°56'0 0.0
2015-Mar-20 01:31N 44°02' E 009°56'0 0.0
2015-Mar-20 00:32N 44°02' E 009°56'0 0.0
2015-Mar-19 23:33N 44°02' E 009°56'0 0.1
2015-Mar-19 22:32N 44°02' E 009°56'0 0.1
2015-Mar-19 21:33N 44°02' E 009°56'0 0.0
2015-Mar-19 20:33N 44°02' E 009°56'0 0.0
2015-Mar-19 19:33N 44°02' E 009°56'0 0.0
2015-Mar-19 18:33N 44°02' E 009°56'0 0.0
2015-Mar-19 17:33N 44°02' E 009°56'0 0.0
2015-Mar-19 16:33N 44°02' E 009°56'0 0.0
2015-Mar-19 15:33N 44°02' E 009°56'0 0.0
2015-Mar-19 14:33N 44°02' E 009°56'0 0.0
2015-Mar-19 13:33N 44°02' E 009°56'0 0.0
2015-Mar-19 12:33N 44°02' E 009°56'0 0.0
2015-Mar-19 11:33N 44°02' E 009°56'0 0.0
2015-Mar-19 10:33N 44°02' E 009°55'0 0.1
2015-Mar-19 09:33N 44°02' E 009°55'0 0.1
2015-Mar-19 08:33N 44°02' E 009°56'0 0.1
2015-Mar-19 07:34N 44°02' E 009°55'8 7.9
2015-Mar-19 06:33N 43°55' E 009°52'1211.7
2015-Mar-19 05:33N 43°45' E 009°42'1211.7
2015-Mar-19 04:33N 43°36' E 009°32'1211.6
2015-Mar-19 03:33N 43°27' E 009°22'1212.0
2015-Mar-19 02:33N 43°18' E 009°11'1211.6
2015-Mar-19 01:32N 43°10' E 008°60'1111.5
2015-Mar-19 00:33N 43°01' E 008°50'1211.9
2015-Mar-18 23:33N 42°52' E 008°39'1211.8
2015-Mar-18 22:33N 42°43' E 008°28'1212.4
2015-Mar-18 21:33N 42°34' E 008°17'1611.4
2015-Mar-18 20:09N 42°22' E 008°02'1112.0
2015-Mar-18 19:15N 42°13' E 007°54'1312.1
2015-Mar-18 18:08N 42°02' E 007°44'2111.8
2015-Mar-18 16:21N 41°45' E 007°28'  
Track history (hours):
 
Tides and Currents Weather Stations Pressure Air Temp Water Temp Dewpoint Dewpoint Depression Visibility Wind Speed Wind Dir Waves Ship Positions

Karin S

Last reported at 2015-Mar-24 15:09 UTC. Time now 2015-Apr-01 10:45 UTC.
Position N 38°14' E 002°38'.

Length 148 m; draft 8.7 m.

Type: Ship. MMSI: 304871000.

Date/timePositionNaut miles runAvg speedWind from/ knotsBaromVisibWave heightAir tempDewpointWater temp
2015-Mar-24 15:09N 38°14' E 002°38'712.3
2015-Mar-24 14:33N 38°22' E 002°36'1312.5
2015-Mar-24 13:33N 38°34' E 002°31'1212.3
2015-Mar-24 12:33N 38°45' E 002°27'1212.3
2015-Mar-24 11:33N 38°57' E 002°23'1212.3
2015-Mar-24 10:33N 39°09' E 002°19'1212.3
2015-Mar-24 09:33N 39°21' E 002°15'1212.2
2015-Mar-24 08:32N 39°33' E 002°11'1212.1
2015-Mar-24 07:33N 39°45' E 002°10'1212.2
2015-Mar-24 06:33N 39°57' E 002°10'1211.8
2015-Mar-24 05:33N 40°09' E 002°10'1211.6
2015-Mar-24 04:33N 40°20' E 002°10'1211.9
2015-Mar-24 03:33N 40°32' E 002°11'1212.1
2015-Mar-24 02:33N 40°44' E 002°10'1212.1
2015-Mar-24 01:33N 40°57' E 002°11'1211.9
2015-Mar-24 00:31N 41°09' E 002°11'9 7.7
2015-Mar-23 23:17N 41°18' E 002°09'0 0.1
2015-Mar-23 22:10N 41°18' E 002°09'0 0.0
2015-Mar-23 21:26N 41°18' E 002°09'0 0.0
2015-Mar-23 16:31N 41°18' E 002°09'0 0.0
2015-Mar-23 10:29N 41°18' E 002°09'0 0.0
2015-Mar-23 07:31N 41°18' E 002°09'2 1.3
2015-Mar-23 06:19N 41°18' E 002°11'10111.4
2015-Mar-22 21:28N 42°09' E 004°07'1111.8
2015-Mar-22 20:31N 42°18' E 004°15'1411.9
2015-Mar-22 19:22N 42°30' E 004°25'1011.9
2015-Mar-22 18:33N 42°38' E 004°32'1312.2
2015-Mar-22 17:29N 42°49' E 004°41'1212.6
2015-Mar-22 16:33N 42°59' E 004°50'1212.0
2015-Mar-22 15:33N 43°09' E 004°59'1111.4
2015-Mar-22 14:33N 43°20' E 004°58'7 7.4
2015-Mar-22 13:33N 43°25' E 004°50'0 0.0
2015-Mar-22 12:30N 43°25' E 004°50'0 0.0
2015-Mar-22 11:33N 43°25' E 004°50'0 0.0
2015-Mar-22 10:33N 43°25' E 004°50'0 0.0
2015-Mar-22 09:33N 43°25' E 004°50'0 0.0
2015-Mar-22 08:33N 43°25' E 004°50'0 0.0
2015-Mar-22 07:25N 43°25' E 004°50'0 0.0
2015-Mar-22 06:25N 43°25' E 004°50'0 0.0
2015-Mar-22 05:25N 43°25' E 004°50'0 0.0
2015-Mar-22 04:31N 43°25' E 004°50'0 0.0
2015-Mar-22 03:33N 43°25' E 004°50'0 0.0
2015-Mar-22 02:33N 43°25' E 004°50'2 1.9
2015-Mar-22 01:33N 43°24' E 004°52'9 9.0
2015-Mar-22 00:33N 43°17' E 005°00'7811.2
2015-Mar-21 17:33N 42°56' E 006°44'1312.7
2015-Mar-21 16:33N 43°01' E 006°60'1313.1
2015-Mar-21 15:32N 43°06' E 007°16'2712.7
2015-Mar-21 13:24N 43°17' E 007°50'2312.5
2015-Mar-21 11:32N 43°27' E 008°19'1212.4
2015-Mar-21 10:33N 43°33' E 008°34'1212.1
2015-Mar-21 09:33N 43°38' E 008°49'1212.1
2015-Mar-21 08:33N 43°44' E 009°04'1212.4
2015-Mar-21 07:33N 43°49' E 009°19'1212.2
2015-Mar-21 06:33N 43°54' E 009°34'1212.0
2015-Mar-21 05:33N 43°60' E 009°49'7 6.7
2015-Mar-21 04:33N 44°06' E 009°51'0 0.0
2015-Mar-21 03:33N 44°06' E 009°51'0 0.0
2015-Mar-21 02:33N 44°06' E 009°51'0 0.0
2015-Mar-21 01:33N 44°06' E 009°51'0 0.0
2015-Mar-21 00:33N 44°06' E 009°51'0 0.0
2015-Mar-20 23:33N 44°06' E 009°51'0 0.0
2015-Mar-20 22:33N 44°06' E 009°51'0 0.0
2015-Mar-20 21:33N 44°06' E 009°51'0 0.0
2015-Mar-20 20:33N 44°06' E 009°51'0 0.0
2015-Mar-20 19:33N 44°06' E 009°51'0 0.0
2015-Mar-20 18:33N 44°06' E 009°51'0 0.0
2015-Mar-20 17:27N 44°06' E 009°51'0 0.0
2015-Mar-20 16:33N 44°06' E 009°51'0 0.0
2015-Mar-20 15:33N 44°06' E 009°51'0 0.0
2015-Mar-20 14:33N 44°06' E 009°51'0 0.0
2015-Mar-20 13:33N 44°06' E 009°51'0 0.0
2015-Mar-20 12:33N 44°06' E 009°51'0 0.0
2015-Mar-20 11:33N 44°06' E 009°51'0 0.0
2015-Mar-20 10:33N 44°06' E 009°51'0 0.0
2015-Mar-20 09:33N 44°06' E 009°51'0 0.0
2015-Mar-20 08:33N 44°06' E 009°51'0 0.0
2015-Mar-20 07:33N 44°06' E 009°51'0 0.0
2015-Mar-20 06:30N 44°06' E 009°51'3 3.5
2015-Mar-20 05:34N 44°03' E 009°52'3 2.7
2015-Mar-20 04:33N 44°02' E 009°56'0 0.0
2015-Mar-20 03:31N 44°02' E 009°56'0 0.0
2015-Mar-20 02:31N 44°02' E 009°56'0 0.0
2015-Mar-20 01:31N 44°02' E 009°56'0 0.0
2015-Mar-20 00:32N 44°02' E 009°56'0 0.0
2015-Mar-19 23:33N 44°02' E 009°56'0 0.1
2015-Mar-19 22:32N 44°02' E 009°56'0 0.1
2015-Mar-19 21:33N 44°02' E 009°56'0 0.0
2015-Mar-19 20:33N 44°02' E 009°56'0 0.0
2015-Mar-19 19:33N 44°02' E 009°56'0 0.0
2015-Mar-19 18:33N 44°02' E 009°56'0 0.0
2015-Mar-19 17:33N 44°02' E 009°56'0 0.0
2015-Mar-19 16:33N 44°02' E 009°56'0 0.0
2015-Mar-19 15:33N 44°02' E 009°56'0 0.0
2015-Mar-19 14:33N 44°02' E 009°56'0 0.0
2015-Mar-19 13:33N 44°02' E 009°56'0 0.0
2015-Mar-19 12:33N 44°02' E 009°56'0 0.0
2015-Mar-19 11:33N 44°02' E 009°56'0 0.0
2015-Mar-19 10:33N 44°02' E 009°55'0 0.1
2015-Mar-19 09:33N 44°02' E 009°55'0 0.1
2015-Mar-19 08:33N 44°02' E 009°56'0 0.1
2015-Mar-19 07:34N 44°02' E 009°55'8 7.9
2015-Mar-19 06:33N 43°55' E 009°52'1211.7
2015-Mar-19 05:33N 43°45' E 009°42'1211.7
2015-Mar-19 04:33N 43°36' E 009°32'1211.6
2015-Mar-19 03:33N 43°27' E 009°22'1212.0
2015-Mar-19 02:33N 43°18' E 009°11'1211.6
2015-Mar-19 01:32N 43°10' E 008°60'1111.5
2015-Mar-19 00:33N 43°01' E 008°50'1211.9
2015-Mar-18 23:33N 42°52' E 008°39'1211.8
2015-Mar-18 22:33N 42°43' E 008°28'1212.4
2015-Mar-18 21:33N 42°34' E 008°17'1611.4
2015-Mar-18 20:09N 42°22' E 008°02'1112.0
2015-Mar-18 19:15N 42°13' E 007°54'1312.1
2015-Mar-18 18:08N 42°02' E 007°44'2111.8
2015-Mar-18 16:21N 41°45' E 007°28'  

Dump ship's entire track history